Time;durP1;ratioP1;P1;durP2;ratioP2;P2;SDS_P1;SDS_P2;PMS_P1;PMS_P2;Temp;Humidity;BMP_temperature;BMP_pressure;BME280_temperature;BME280_humidity;BME280_pressure;Samples;Min_cycle;Max_cycle;Signal;HPM_P1;HPM_P2
2021/05/02 00:00:58;;;;;;;;;26.25;26.25;;;;;17.21;74.51;101289.22;4899437;29;9916;-77
2021/05/02 00:03:53;;;;;;;;;31.75;31.25;;;;;17.20;74.38;101296.00;4886878;29;10296;-76
2021/05/02 00:06:21;;;;;;;;;25.67;25.67;;;;;17.11;74.96;101298.16;4902320;29;9723;-76
2021/05/02 00:09:16;;;;;;;;;32.00;31.25;;;;;17.11;74.81;101291.78;4917878;29;10172;-77
2021/05/02 00:12:12;;;;;;;;;25.25;24.00;;;;;17.16;74.83;101289.50;4918088;29;9699;-77
2021/05/02 00:15:14;;;;;;;;;26.00;24.33;;;;;17.01;75.37;101295.88;4918083;29;9477;-77
2021/05/02 00:18:11;;;;;;;;;29.75;29.75;;;;;17.00;75.39;101285.06;4918163;29;10110;-77
2021/05/02 00:21:10;;;;;;;;;23.67;23.67;;;;;17.02;75.49;101277.13;4917990;29;9558;-77
2021/05/02 00:24:08;;;;;;;;;21.67;21.67;;;;;16.82;76.34;101270.66;4916084;29;9398;-76
2021/05/02 00:27:04;;;;;;;;;24.25;24.25;;;;;16.85;76.46;101267.94;4917964;29;9488;-76
2021/05/02 00:30:01;;;;;;;;;27.67;27.67;;;;;16.82;76.40;101262.28;4917748;29;9524;-76
2021/05/02 00:32:57;;;;;;;;;26.00;26.00;;;;;16.82;76.26;101271.47;4915740;29;9399;-77
2021/05/02 00:35:53;;;;;;;;;26.67;26.67;;;;;16.80;76.19;101265.44;4917317;29;9492;-77
2021/05/02 00:38:49;;;;;;;;;46.75;40.00;;;;;16.60;76.87;101263.66;4917652;29;10109;-77
2021/05/02 00:41:29;;;;;;;;;47.25;41.75;;;;;16.66;76.56;101265.84;4918484;29;10476;-77
2021/05/02 00:44:31;;;;;;;;;33.75;32.25;;;;;16.73;76.20;101258.84;4917463;29;10464;-78
2021/05/02 00:47:38;;;;;;;;;30.50;30.50;;;;;16.53;76.59;101267.06;4918400;29;9746;-77
2021/05/02 00:50:50;;;;;;;;;30.50;30.25;;;;;16.55;76.58;101275.09;4917362;29;9711;-77
2021/05/02 00:54:02;;;;;;;;;28.75;28.75;;;;;16.65;76.20;101269.81;4917092;29;9638;-77
2021/05/02 00:57:10;;;;;;;;;30.25;26.75;;;;;16.58;75.98;101268.81;4916277;29;9746;-77
2021/05/02 01:00:08;;;;;;;;;25.67;25.67;;;;;16.30;76.77;101271.59;4917254;29;9557;-77
2021/05/02 01:03:07;;;;;;;;;5.00;5.00;;;;;16.10;77.92;101254.72;4903812;29;9387;-77
2021/05/02 01:06:08;;;;;;;;;27.00;27.00;;;;;16.09;78.16;101260.63;4916845;29;9594;-77
2021/05/02 01:09:04;;;;;;;;;27.75;27.75;;;;;16.19;77.94;101262.13;4916950;29;9803;-77
2021/05/02 01:12:01;;;;;;;;;30.25;27.00;;;;;16.16;77.80;101251.66;4916930;29;9890;-77
2021/05/02 01:14:58;;;;;;;;;23.50;23.50;;;;;16.11;77.86;101256.34;4897168;29;9811;-77
2021/05/02 01:18:17;;;;;;;;;27.75;27.75;;;;;16.21;77.65;101254.22;4897979;29;9552;-77
2021/05/02 01:21:14;;;;;;;;;26.25;26.25;;;;;16.18;77.59;101250.16;4905956;29;9620;-77
2021/05/02 01:24:11;;;;;;;;;26.50;26.50;;;;;16.22;77.36;101251.06;4916520;29;9644;-77
2021/05/02 01:27:07;;;;;;;;;28.00;27.50;;;;;16.16;77.25;101255.25;4916874;29;9567;-77
2021/05/02 01:30:09;;;;;;;;;24.50;24.50;;;;;16.01;77.46;101250.44;4903987;29;9643;-77
2021/05/02 01:33:05;;;;;;;;;29.00;27.50;;;;;16.02;77.60;101249.28;4903198;29;9651;-77
2021/05/02 01:36:02;;;;;;;;;25.25;25.00;;;;;16.02;77.61;101241.72;4916516;29;9663;-77
2021/05/02 01:38:49;;;;;;;;;27.00;26.50;;;;;15.98;77.43;101243.59;4903364;29;9569;-77
2021/05/02 01:41:45;;;;;;;;;26.75;26.75;;;;;15.85;77.63;101244.78;4916378;29;9386;-77
2021/05/02 01:44:41;;;;;;;;;25.50;24.00;;;;;15.90;77.43;101233.41;4897217;29;9614;-77
2021/05/02 01:47:43;;;;;;;;;24.25;24.25;;;;;15.98;77.32;101234.41;4885097;29;9684;-77
2021/05/02 01:50:12;;;;;;;;;24.67;24.67;;;;;15.83;77.72;101225.63;4898580;29;9743;-77
2021/05/02 01:52:52;;;;;;;;;26.50;23.50;;;;;15.73;78.00;101219.75;4899537;29;9495;-76
2021/05/02 01:55:54;;;;;;;;;23.50;22.75;;;;;15.66;78.17;101220.34;4916227;29;9516;-76
2021/05/02 01:58:50;;;;;;;;;19.75;19.75;;;;;15.72;77.91;101224.50;4916405;29;9659;-77
2021/05/02 02:01:46;;;;;;;;;23.50;23.50;;;;;15.76;77.85;101221.81;4899171;29;9626;-76
2021/05/02 02:04:46;;;;;;;;;25.50;25.50;;;;;15.69;77.52;101219.63;4884729;29;9729;-77
2021/05/02 02:07:42;;;;;;;;;25.50;25.50;;;;;15.63;77.74;101223.00;4897219;29;9640;-76
2021/05/02 02:10:39;;;;;;;;;23.00;23.00;;;;;15.54;78.54;101226.72;4897337;29;9632;-76
2021/05/02 02:13:35;;;;;;;;;26.00;26.00;;;;;15.64;77.92;101233.84;4897136;29;9590;-77
2021/05/02 02:16:31;;;;;;;;;24.75;24.75;;;;;15.59;77.74;101239.63;4897047;29;10517;-77
2021/05/02 02:19:26;;;;;;;;;23.50;23.50;;;;;15.55;77.87;101244.25;4897166;29;9731;-77
2021/05/02 02:21:59;;;;;;;;;25.00;25.00;;;;;15.46;78.33;101246.38;4882162;29;9641;-75
2021/05/02 02:25:02;;;;;;;;;25.00;25.00;;;;;15.46;78.12;101244.38;4897033;29;9728;-78
2021/05/02 02:28:02;;;;;;;;;23.50;23.50;;;;;15.50;77.70;101227.78;4885963;29;10574;-75
2021/05/02 02:30:59;;;;;;;;;23.00;23.00;;;;;15.55;77.55;101225.53;4890372;29;9787;-75
2021/05/02 02:33:54;;;;;;;;;23.00;22.50;;;;;15.56;78.02;101220.78;4918610;29;9715;-76
2021/05/02 02:36:50;;;;;;;;;23.50;23.50;;;;;15.58;77.95;101210.13;4908950;29;9827;-76
2021/05/02 02:40:08;;;;;;;;;22.00;22.00;;;;;15.66;77.40;101225.13;4902954;29;9718;-76
2021/05/02 02:42:36;;;;;;;;;22.75;22.75;;;;;15.58;77.16;101229.63;4920180;29;9563;-76
2021/05/02 02:45:34;;;;;;;;;22.75;22.75;;;;;15.62;77.29;101226.97;4909496;29;9552;-76
2021/05/02 02:48:30;;;;;;;;;24.75;22.75;;;;;15.66;76.94;101227.91;4895414;29;9890;-76
2021/05/02 02:51:28;;;;;;;;;26.25;25.25;;;;;15.56;78.08;101223.56;4901501;29;9575;-76
2021/05/02 02:54:25;;;;;;;;;22.50;22.50;;;;;15.52;77.47;101228.25;4915436;29;9875;-76
2021/05/02 02:57:23;;;;;;;;;25.00;25.00;;;;;15.47;77.68;101220.09;4904357;29;10683;-75
2021/05/02 03:00:23;;;;;;;;;25.50;25.25;;;;;15.61;76.90;101223.38;4912515;29;9648;-75
2021/05/02 03:03:21;;;;;;;;;16.50;15.50;;;;;15.47;77.31;101226.50;4895134;29;10049;-75
2021/05/02 03:06:20;;;;;;;;;15.00;15.00;;;;;15.73;77.03;101223.34;4896502;29;10384;-76
2021/05/02 03:09:16;;;;;;;;;25.50;24.25;;;;;15.77;76.61;101213.09;4893358;29;9620;-76
2021/05/02 03:12:12;;;;;;;;;22.75;22.75;;;;;15.90;76.88;101215.84;4906332;29;9537;-76
2021/05/02 03:15:10;;;;;;;;;27.25;25.00;;;;;15.90;76.27;101207.50;4908910;29;9568;-76
2021/05/02 03:18:07;;;;;;;;;26.00;26.00;;;;;15.87;76.85;101211.78;4898823;29;9549;-77
2021/05/02 03:21:08;;;;;;;;;26.75;26.75;;;;;15.81;76.41;101202.06;4898895;29;9566;-76
2021/05/02 03:23:41;;;;;;;;;24.25;22.75;;;;;15.99;76.04;101195.00;4900032;29;9739;-76
2021/05/02 03:26:37;;;;;;;;;25.00;25.00;;;;;15.92;75.64;101203.16;4902235;29;10406;-75
2021/05/02 03:29:39;;;;;;;;;26.00;26.00;;;;;15.81;75.90;101214.03;4917433;29;9617;-76
2021/05/02 03:32:36;;;;;;;;;19.50;19.50;;;;;15.80;76.08;101215.19;4917491;29;9761;-75
2021/05/02 03:35:35;;;;;;;;;25.75;25.25;;;;;16.00;76.11;101216.16;4917199;29;9630;-75
2021/05/02 03:38:28;;;;;;;;;28.50;28.50;;;;;16.21;76.07;101210.38;4901810;29;9737;-76
2021/05/02 03:41:24;;;;;;;;;24.00;24.00;;;;;16.29;74.69;101214.16;4904786;29;9770;-76
2021/05/02 03:44:19;;;;;;;;;27.25;26.25;;;;;16.29;74.55;101212.19;4917572;29;9650;-77
2021/05/02 03:47:15;;;;;;;;;25.75;24.75;;;;;16.39;74.49;101216.44;4917496;29;9651;-76
2021/05/02 03:50:11;;;;;;;;;24.25;24.00;;;;;16.57;74.74;101202.97;4904655;29;10386;-76
2021/05/02 03:52:38;;;;;;;;;22.50;20.75;;;;;16.66;73.99;101206.38;4918045;29;9553;-76
2021/05/02 03:55:42;;;;;;;;;25.75;25.75;;;;;16.74;73.57;101201.81;4904609;29;10518;-76
2021/05/02 03:58:38;;;;;;;;;22.67;22.67;;;;;16.72;73.67;101202.19;4904154;29;10284;-77
2021/05/02 04:01:05;;;;;;;;;26.75;25.50;;;;;16.81;73.57;101216.78;4901474;29;9436;-77
2021/05/02 04:04:01;;;;;;;;;26.50;26.50;;;;;17.01;73.71;101217.66;4403289;29;15140046;-76
2021/05/02 04:06:59;;;;;;;;;22.33;22.33;;;;;17.07;73.43;101221.00;4914763;29;8851;-76
2021/05/02 04:09:54;;;;;;;;;25.00;24.50;;;;;17.15;73.42;101228.38;4901834;29;9532;-76
2021/05/02 04:12:24;;;;;;;;;21.67;21.67;;;;;17.20;73.14;101228.09;4890640;29;10367;-77
2021/05/02 04:15:20;;;;;;;;;23.00;23.00;;;;;17.29;74.07;101227.91;4906234;29;9093;-76
2021/05/02 04:17:47;;;;;;;;;23.00;23.00;;;;;17.32;72.28;101222.38;4914650;29;9260;-77
2021/05/02 04:20:43;;;;;;;;;19.33;19.33;;;;;17.18;72.76;101231.28;4906903;29;9216;-76
2021/05/02 04:23:38;;;;;;;;;21.00;21.00;;;;;17.37;72.43;101233.28;4918679;29;9454;-76
2021/05/02 04:26:06;;;;;;;;;24.00;23.67;;;;;17.32;72.66;101241.16;4909551;29;9183;-77
2021/05/02 04:28:34;;;;;;;;;24.00;23.67;;;;;17.28;72.62;101241.06;4917813;29;9204;-76
2021/05/02 04:31:31;;;;;;;;;22.67;22.67;;;;;17.37;72.34;101244.47;4905002;29;9306;-77
2021/05/02 04:34:27;;;;;;;;;22.67;22.67;;;;;17.56;72.18;101240.09;4917610;29;9104;-76
2021/05/02 04:37:23;;;;;;;;;28.67;28.67;;;;;17.55;72.05;101247.69;4894629;29;9201;-76
2021/05/02 04:39:50;;;;;;;;;30.67;28.00;;;;;17.97;75.26;101247.03;4884930;29;9142;-78
2021/05/02 04:42:46;;;;;;;;;24.25;24.25;;;;;18.17;73.06;101247.81;4900947;29;9295;-77
2021/05/02 04:45:41;;;;;;;;;22.33;22.33;;;;;18.22;72.27;101261.53;4898542;29;8915;-78
2021/05/02 04:48:17;;;;;;;;;24.33;24.33;;;;;18.25;71.76;101250.44;4884682;29;9035;-77
2021/05/02 04:50:44;;;;;;;;;23.00;23.00;;;;;18.34;70.71;101253.00;4899573;29;9018;-77
2021/05/02 04:53:41;;;;;;;;;24.75;23.25;;;;;18.56;73.17;101245.81;4898691;29;9172;-77
2021/05/02 04:56:17;;;;;;;;;23.50;22.00;;;;;18.56;70.37;101251.41;4901822;29;8940;-78
2021/05/02 04:59:13;;;;;;;;;27.33;27.33;;;;;18.70;71.49;101234.06;4917201;29;8873;-77
2021/05/02 05:01:43;;;;;;;;;31.67;27.00;;;;;18.70;68.92;101236.88;4917723;29;9034;-77
2021/05/02 05:04:38;;;;;;;;;22.75;22.75;;;;;18.94;71.95;101232.88;4917125;29;8974;-77
2021/05/02 05:07:34;;;;;;;;;23.75;23.75;;;;;19.09;70.20;101241.19;4903913;29;8835;-78
2021/05/02 05:10:16;;;;;;;;;20.00;20.00;;;;;19.14;67.18;101238.03;4917982;29;8878;-77
2021/05/02 05:12:43;;;;;;;;;20.00;20.00;;;;;19.08;68.28;101236.72;4914134;29;8879;-77
2021/05/02 05:15:39;;;;;;;;;17.75;17.75;;;;;19.30;67.08;101234.28;4909173;29;8876;-78
2021/05/02 05:18:15;;;;;;;;;25.25;25.25;;;;;19.56;67.84;101234.28;4930057;29;8856;-78
2021/05/02 05:20:43;;;;;;;;;27.25;26.50;;;;;19.65;67.67;101228.41;4923386;29;8890;-78
2021/05/02 05:23:25;;;;;;;;;15.75;15.75;;;;;19.66;65.67;101233.63;4903072;29;8863;-78
2021/05/02 05:26:06;;;;;;;;;18.25;18.00;;;;;19.84;66.70;101221.84;4905525;29;9602;-77
2021/05/02 05:29:02;;;;;;;;;19.25;19.25;;;;;19.94;66.32;101230.41;4926264;29;8875;-77
2021/05/02 05:31:33;;;;;;;;;19.25;19.25;;;;;19.93;66.45;101236.38;4917430;29;9052;-78
2021/05/02 05:34:08;;;;;;;;;32.25;31.00;;;;;20.08;69.19;101226.13;4901009;29;8843;-78
2021/05/02 05:37:04;;;;;;;;;22.75;22.75;;;;;20.19;67.73;101221.47;4897723;29;9688;-76
2021/05/02 05:39:59;;;;;;;;;17.50;17.50;;;;;20.21;65.62;101227.50;4898495;29;8854;-79
2021/05/02 05:42:56;;;;;;;;;20.75;20.75;;;;;20.23;66.66;101222.31;4897451;29;8847;-77
2021/05/02 05:45:54;;;;;;;;;15.25;15.25;;;;;20.41;66.51;101214.09;4908212;29;8869;-78
2021/05/02 05:48:49;;;;;;;;;16.25;16.25;;;;;20.09;65.99;101214.56;4917456;29;8858;-78
2021/05/02 05:51:52;;;;;;;;;12.75;12.75;;;;;20.38;62.93;101218.47;4926890;29;8879;-77
2021/05/02 05:54:27;;;;;;;;;15.00;15.00;;;;;20.60;64.08;101218.72;4912073;29;8853;-78
2021/05/02 05:57:22;;;;;;;;;17.50;16.75;;;;;20.69;64.72;101217.19;4904806;29;8846;-78
2021/05/02 05:59:50;;;;;;;;;18.00;18.00;;;;;20.74;62.57;101213.22;4897825;29;9703;-78
2021/05/02 06:02:31;;;;;;;;;16.00;16.00;;;;;20.76;61.75;101220.06;4908982;29;8931;-78
2021/05/02 06:05:04;;;;;;;;;17.00;17.00;;;;;20.56;62.13;101215.06;4900403;29;8873;-79
2021/05/02 06:08:00;;;;;;;;;13.25;13.25;;;;;20.72;63.53;101222.06;4911764;29;8889;-78
2021/05/02 06:10:28;;;;;;;;;20.00;19.00;;;;;20.75;63.29;101210.03;4881721;29;8873;-78
2021/05/02 06:12:55;;;;;;;;;15.25;15.25;;;;;20.85;63.13;101219.75;4881691;29;8857;-78
2021/05/02 06:15:23;;;;;;;;;15.00;15.00;;;;;20.56;62.58;101215.06;4881590;29;8894;-76
2021/05/02 06:17:51;;;;;;;;;13.25;13.25;;;;;20.38;62.71;101215.66;4898082;29;8865;-78
2021/05/02 06:20:47;;;;;;;;;20.75;20.75;;;;;20.83;66.10;101213.72;4900160;29;8875;-78
2021/05/02 06:23:14;;;;;;;;;16.75;16.75;;;;;20.75;62.94;101214.84;4903639;29;8857;-76
2021/05/02 06:26:10;;;;;;;;;14.50;14.50;;;;;20.96;62.74;101214.22;4910259;29;9585;-80
2021/05/02 06:28:41;;;;;;;;;13.75;13.75;;;;;20.77;61.74;101212.44;4892599;29;8875;-80
2021/05/02 06:31:40;;;;;;;;;12.75;12.75;;;;;20.72;62.37;101210.81;4923859;29;8872;-81
2021/05/02 06:34:08;;;;;;;;;17.00;17.00;;;;;20.34;63.40;101208.41;4937601;29;8932;-79
2021/05/02 06:37:03;;;;;;;;;15.75;15.75;;;;;20.46;63.19;101208.94;4934661;29;8849;-79
2021/05/02 06:39:59;;;;;;;;;15.25;15.25;;;;;20.93;62.71;101201.75;4934544;29;8844;-77
2021/05/02 06:42:54;;;;;;;;;17.75;17.75;;;;;20.82;62.70;101195.22;4922276;29;8851;-79
2021/05/02 06:45:22;;;;;;;;;16.50;16.50;;;;;21.01;62.26;101192.19;4899886;29;8854;-77
2021/05/02 06:48:18;;;;;;;;;17.25;17.25;;;;;21.36;63.07;101188.81;4925467;29;8865;-79
2021/05/02 06:51:13;;;;;;;;;13.75;13.75;;;;;21.47;61.29;101194.53;4912121;29;8843;-79
2021/05/02 06:53:59;;;;;;;;;16.75;16.25;;;;;21.80;61.07;101199.13;4918925;29;8843;-80
2021/05/02 06:56:55;;;;;;;;;14.50;14.50;;;;;22.15;59.79;101206.91;4915917;29;8871;-80
2021/05/02 06:59:50;;;;;;;;;14.50;14.50;;;;;22.40;59.41;101206.19;4916325;29;8879;-79
2021/05/02 07:02:46;;;;;;;;;11.00;11.00;;;;;22.69;59.38;101202.19;4915955;29;8843;-79
2021/05/02 07:05:13;;;;;;;;;12.00;12.00;;;;;22.92;58.82;101198.19;4899957;29;8851;-80
2021/05/02 07:07:41;;;;;;;;;15.00;15.00;;;;;23.21;58.42;101202.59;4916634;29;8847;-77
2021/05/02 07:10:09;;;;;;;;;13.25;13.25;;;;;23.42;56.78;101198.13;4916323;29;8847;-79
2021/05/02 07:12:37;;;;;;;;;14.00;13.80;;;;;23.56;56.58;101198.09;4915877;29;8871;-78
2021/05/02 07:15:32;;;;;;;;;12.50;12.25;;;;;23.45;56.75;101198.13;4902584;29;8879;-79
2021/05/02 07:18:14;;;;;;;;;15.00;15.00;;;;;23.51;55.71;101204.16;4916000;29;8894;-79
2021/05/02 07:21:05;;;;;;;;;13.00;13.00;;;;;22.90;57.09;101198.59;4902364;29;8859;-79
2021/05/02 07:24:00;;;;;;;;;10.60;10.60;;;;;23.38;57.19;101198.13;4915701;29;9006;-78
2021/05/02 07:26:57;;;;;;;;;14.00;14.00;;;;;23.53;56.30;101198.91;4912132;29;8843;-78
2021/05/02 07:29:53;;;;;;;;;14.25;14.00;;;;;23.44;56.16;101187.25;4916922;29;8853;-78
2021/05/02 07:32:48;;;;;;;;;11.00;11.00;;;;;23.34;55.99;101171.94;4918003;29;8960;-79
2021/05/02 07:35:45;;;;;;;;;12.20;12.20;;;;;23.57;55.14;101161.00;4900400;29;8861;-75
2021/05/02 07:38:44;;;;;;;;;12.20;12.20;;;;;23.63;55.25;101167.06;4913353;29;8875;-75
2021/05/02 07:41:40;;;;;;;;;11.20;11.20;;;;;23.96;54.43;101171.34;4902380;29;8882;-75
2021/05/02 07:44:35;;;;;;;;;12.40;12.40;;;;;24.20;54.43;101160.31;4918278;29;8878;-75
2021/05/02 07:47:31;;;;;;;;;22.60;22.60;;;;;24.15;54.22;101158.72;4918462;29;8929;-76
2021/05/02 07:49:59;;;;;;;;;12.20;12.20;;;;;24.35;53.97;101161.84;4902691;29;8865;-75
2021/05/02 07:52:55;;;;;;;;;13.40;12.80;;;;;24.25;53.75;101155.03;4918257;29;8852;-75
2021/05/02 07:55:36;;;;;;;;;12.80;12.80;;;;;24.30;53.61;101157.41;4918487;29;8874;-75
2021/05/02 07:58:32;;;;;;;;;11.80;11.80;;;;;24.46;53.18;101150.47;4918327;29;8882;-75
2021/05/02 08:00:59;;;;;;;;;12.60;12.20;;;;;24.47;52.88;101138.75;4919026;29;8871;-75
2021/05/02 08:03:27;;;;;;;;;11.40;11.40;;;;;24.69;53.22;101136.56;4919099;29;9593;-75
2021/05/02 08:05:59;;;;;;;;;13.80;13.80;;;;;24.58;52.86;101138.66;4919126;29;8839;-75
2021/05/02 08:08:43;;;;;;;;;11.40;10.40;;;;;24.74;52.25;101136.09;4919299;29;8915;-75
2021/05/02 08:11:39;;;;;;;;;10.00;10.00;;;;;24.82;51.79;101126.31;4905424;29;8859;-75
2021/05/02 08:14:08;;;;;;;;;10.00;10.00;;;;;24.63;52.38;101129.75;4902186;29;8871;-75
2021/05/02 08:16:36;;;;;;;;;11.20;11.20;;;;;24.80;53.01;101130.81;4919097;29;8847;-75
2021/05/02 08:19:04;;;;;;;;;12.80;12.00;;;;;24.85;52.59;101124.72;4918831;29;8867;-74
2021/05/02 08:22:03;;;;;;;;;12.00;12.00;;;;;24.70;52.31;101129.69;4918292;29;8858;-75
2021/05/02 08:24:58;;;;;;;;;14.60;14.60;;;;;24.57;53.24;101126.56;4917841;29;8922;-75
2021/05/02 08:27:47;;;;;;;;;9.40;9.40;;;;;24.73;53.12;101125.22;4918702;29;8855;-75
2021/05/02 08:30:43;;;;;;;;;7.60;7.60;;;;;24.93;51.30;101127.03;4917627;29;8898;-75
2021/05/02 08:33:39;;;;;;;;;11.80;11.80;;;;;25.14;51.54;101126.03;4917657;29;8839;-75
2021/05/02 08:36:17;;;;;;;;;12.60;12.60;;;;;25.17;50.83;101119.53;4918402;29;8847;-75
2021/05/02 08:39:13;;;;;;;;;8.00;8.00;;;;;25.15;49.61;101121.16;4917689;29;8870;-75
2021/05/02 08:42:08;;;;;;;;;11.80;11.80;;;;;25.13;49.98;101112.31;4904853;29;8875;-75
2021/05/02 08:45:05;;;;;;;;;10.20;10.20;;;;;25.27;50.32;101112.16;4917585;29;8859;-75
2021/05/02 08:48:01;;;;;;;;;10.20;9.80;;;;;25.22;49.75;101106.94;4917698;29;8969;-74
2021/05/02 08:50:59;;;;;;;;;8.00;8.00;;;;;25.45;49.36;101094.94;4904276;29;8858;-74
2021/05/02 08:53:40;;;;;;;;;13.00;13.00;;;;;25.41;49.73;101097.03;4917910;29;8875;-75
2021/05/02 08:56:36;;;;;;;;;8.20;8.20;;;;;25.44;49.33;101093.34;4917374;29;8855;-75
2021/05/02 08:59:31;;;;;;;;;8.40;7.80;;;;;25.27;49.64;101091.53;4917098;29;8878;-75
2021/05/02 09:02:28;;;;;;;;;9.80;9.80;;;;;25.23;49.26;101085.94;4917086;29;8867;-74
2021/05/02 09:05:24;;;;;;;;;11.40;11.40;;;;;25.54;48.72;101089.59;4917336;29;9617;-74
2021/05/02 09:07:54;;;;;;;;;10.80;10.80;;;;;25.64;48.13;101093.50;4917334;29;9030;-75
2021/05/02 09:10:33;;;;;;;;;10.60;10.60;;;;;25.37;49.06;101077.25;4918303;29;8859;-75
2021/05/02 09:13:30;;;;;;;;;7.60;7.60;;;;;25.62;47.63;101087.47;4917169;29;8922;-75
2021/05/02 09:16:16;;;;;;;;;7.00;7.00;;;;;25.78;47.35;101091.31;4903909;29;8839;-75
2021/05/02 09:18:59;;;;;;;;;9.00;9.00;;;;;26.09;46.77;101090.47;4901883;29;8883;-75
2021/05/02 09:21:54;;;;;;;;;5.60;5.60;;;;;26.05;46.62;101088.47;4916945;29;8871;-75
2021/05/02 09:25:00;;;;;;;;;7.80;7.80;;;;;26.00;47.12;101080.47;4916942;29;8898;-75
2021/05/02 09:27:55;;;;;;;;;7.20;7.20;;;;;26.24;46.15;101084.16;4916944;29;9609;-75
2021/05/02 09:30:23;;;;;;;;;8.40;8.40;;;;;26.65;45.49;101080.25;4917765;29;8855;-75
2021/05/02 09:33:26;;;;;;;;;8.60;8.60;;;;;26.82;45.63;101067.75;4916494;29;8874;-75
2021/05/02 09:36:25;;;;;;;;;9.60;9.60;;;;;26.89;45.28;101073.31;4905636;29;8892;-75
2021/05/02 09:39:50;;;;;;;;;10.40;10.40;;;;;26.69;45.57;101077.38;4916398;29;8902;-75
2021/05/02 09:42:23;;;;;;;;;7.80;7.80;;;;;26.98;44.45;101069.09;4917344;29;9644;-75
2021/05/02 09:45:18;;;;;;;;;7.80;7.80;;;;;26.71;45.40;101060.69;4916514;29;8881;-75
2021/05/02 09:48:32;;;;;;;;;7.20;7.20;;;;;26.89;45.16;101064.78;4916156;29;8847;-75
2021/05/02 09:51:31;;;;;;;;;9.80;9.80;;;;;26.49;45.55;101061.06;4916141;29;8883;-74
2021/05/02 09:54:27;;;;;;;;;8.00;8.00;;;;;26.49;45.38;101057.44;4916431;29;8878;-75
2021/05/02 09:57:23;;;;;;;;;6.40;6.40;;;;;26.51;45.90;101064.28;4916107;29;8835;-74
2021/05/02 10:00:06;;;;;;;;;10.00;10.00;;;;;26.54;46.53;101059.78;4916978;29;9598;-74
2021/05/02 10:02:47;;;;;;;;;7.80;7.80;;;;;26.58;44.93;101058.47;4901819;29;8858;-74
2021/05/02 10:06:03;;;;;;;;;8.00;8.00;;;;;26.21;45.34;101047.34;4915758;29;8893;-74
2021/05/02 10:09:00;;;;;;;;;9.60;9.60;;;;;26.46;45.63;101055.47;4915795;29;8835;-74
2021/05/02 10:11:56;;;;;;;;;9.00;9.00;;;;;26.21;46.01;101056.66;4915731;29;8855;-75
2021/05/02 10:14:52;;;;;;;;;6.00;6.00;;;;;26.55;45.11;101062.19;4903234;29;9606;-74
2021/05/02 10:17:49;;;;;;;;;7.60;7.40;;;;;26.41;45.23;101055.97;4915519;29;8840;-74
2021/05/02 10:20:47;;;;;;;;;7.00;7.00;;;;;26.09;45.20;101054.44;4902969;29;8847;-74
2021/05/02 10:23:43;;;;;;;;;7.60;7.60;;;;;26.19;45.62;101049.81;4915450;29;8860;-74
2021/05/02 10:26:38;;;;;;;;;5.80;5.80;;;;;26.14;44.83;101051.09;4915734;29;8847;-75
2021/05/02 10:29:37;;;;;;;;;8.20;8.20;;;;;26.06;45.26;101041.09;4915975;29;8934;-74
2021/05/02 10:32:25;;;;;;;;;7.60;7.60;;;;;26.24;45.19;101040.84;4902581;29;8855;-74
2021/05/02 10:35:21;;;;;;;;;6.80;6.80;;;;;26.21;45.06;101036.81;4902954;29;8863;-74
2021/05/02 10:38:19;;;;;;;;;5.20;5.20;;;;;26.11;45.47;101023.63;4916519;29;8847;-74
2021/05/02 10:41:28;;;;;;;;;7.40;7.40;;;;;26.36;45.81;101014.69;4899352;29;8875;-73
2021/05/02 10:44:23;;;;;;;;;11.20;11.20;;;;;26.43;45.95;101017.44;4915732;29;8998;-74
2021/05/02 10:47:41;;;;;;;;;6.60;6.60;;;;;26.69;44.63;101006.44;4915885;29;8839;-73
2021/05/02 10:50:33;;;;;;;;;7.20;7.20;;;;;26.51;44.36;100996.22;4916740;29;8870;-73
2021/05/02 10:53:29;;;;;;;;;8.20;8.20;;;;;26.85;43.85;100992.34;4915238;29;8915;-72
2021/05/02 10:56:15;;;;;;;;;7.60;7.60;;;;;27.23;43.06;100997.69;4913979;29;9003;-72
2021/05/02 10:59:12;;;;;;;;;9.00;8.80;;;;;27.12;43.23;101003.56;4883939;29;8876;-76
2021/05/02 11:02:34;;;;;;;;;9.40;9.40;;;;;27.63;42.59;100992.72;4883856;29;8842;-77
2021/05/02 11:05:08;;;;;;;;;7.80;7.80;;;;;27.97;41.87;100998.81;4897465;29;8892;-77
2021/05/02 11:07:40;;;;;;;;;9.00;9.00;;;;;28.13;41.12;100991.50;4897728;29;8859;-77
2021/05/02 11:10:14;;;;;;;;;8.40;8.40;;;;;28.55;40.66;100988.84;4882913;29;8949;-77
2021/05/02 11:13:29;;;;;;;;;10.80;10.80;;;;;28.74;39.81;100980.16;4915225;29;8895;-79
2021/05/02 11:16:25;;;;;;;;;18.40;18.40;;;;;28.49;40.55;100980.03;4912924;29;9006;-79
2021/05/02 11:19:24;;;;;;;;;18.20;18.20;;;;;28.72;38.93;100979.81;4906418;29;8899;-77
2021/05/02 11:22:11;;;;;;;;;8.80;8.40;;;;;28.83;38.46;100968.09;4904068;29;8883;-75
2021/05/02 11:24:39;;;;;;;;;6.20;6.20;;;;;28.67;38.31;100971.00;4903201;29;8835;-77
2021/05/02 11:28:07;;;;;;;;;8.80;8.80;;;;;28.41;38.99;100964.41;4899943;29;8846;-76
2021/05/02 11:30:59;;;;;;;;;9.00;9.00;;;;;27.99;39.64;100955.75;4890550;29;8841;-77
2021/05/02 11:34:06;;;;;;;;;9.00;8.20;;;;;27.89;39.16;100954.75;4899958;29;8900;-76
2021/05/02 11:37:02;;;;;;;;;11.40;10.40;;;;;27.85;39.89;100961.78;4899699;29;8849;-77
2021/05/02 11:39:57;;;;;;;;;9.60;9.60;;;;;27.56;40.44;100961.63;4915653;29;8854;-78
2021/05/02 11:43:12;;;;;;;;;13.00;12.80;;;;;27.40;40.73;100962.41;4887122;29;8831;-77
2021/05/02 11:46:17;;;;;;;;;9.20;9.20;;;;;27.51;40.65;100953.63;4899747;29;8851;-78
2021/05/02 11:49:12;;;;;;;;;9.40;9.40;;;;;27.01;40.81;100955.50;4899472;29;8884;-77
2021/05/02 11:52:08;;;;;;;;;9.00;9.00;;;;;27.26;40.23;100963.50;4899437;29;8845;-78
2021/05/02 11:55:04;;;;;;;;;8.80;8.80;;;;;27.01;40.61;100954.72;4900612;29;8843;-78
2021/05/02 11:57:54;;;;;;;;;9.00;9.00;;;;;26.95;41.06;100957.25;4911550;29;9032;-78
2021/05/02 12:00:44;;;;;;;;;9.00;9.00;;;;;26.45;42.21;100951.75;4913784;29;8863;-77
2021/05/02 12:03:40;;;;;;;;;9.40;9.40;;;;;26.53;41.23;100956.91;4917706;29;8970;-77
2021/05/02 12:06:38;;;;;;;;;10.20;10.20;;;;;26.55;41.16;100962.94;4913534;29;8862;-78
2021/05/02 12:09:33;;;;;;;;;9.20;9.20;;;;;26.62;40.71;100962.00;4895782;29;8848;-77
2021/05/02 12:12:38;;;;;;;;;10.20;10.20;;;;;26.68;40.46;100963.06;4908399;29;8857;-77
2021/05/02 12:15:34;;;;;;;;;9.00;8.60;;;;;26.74;40.62;100961.31;4907832;29;8867;-77
2021/05/02 12:18:10;;;;;;;;;7.80;7.80;;;;;26.82;40.45;100961.97;4908868;29;8863;-77
2021/05/02 12:21:32;;;;;;;;;7.00;7.00;;;;;26.67;40.65;100957.84;4908200;29;8861;-76
2021/05/02 12:24:29;;;;;;;;;8.60;8.60;;;;;26.69;40.53;100955.38;4894535;29;8878;-79
2021/05/02 12:27:25;;;;;;;;;19.80;16.80;;;;;26.68;40.68;100953.75;4906385;29;8860;-77
2021/05/02 12:30:21;;;;;;;;;10.60;10.60;;;;;26.37;41.77;100944.59;4893501;29;8881;-79
2021/05/02 12:32:49;;;;;;;;;8.80;8.80;;;;;26.57;40.89;100948.31;4913837;29;9000;-78
2021/05/02 12:35:44;;;;;;;;;8.00;8.00;;;;;26.49;41.06;100941.97;4900480;29;8839;-78
2021/05/02 12:38:41;;;;;;;;;9.00;9.00;;;;;26.40;41.83;100935.28;4924211;29;8864;-78
2021/05/02 12:41:38;;;;;;;;;6.00;6.00;;;;;26.02;41.92;100935.53;4916395;29;8864;-78
2021/05/02 12:44:35;;;;;;;;;7.40;7.40;;;;;25.87;42.23;100949.13;4905683;29;8841;-77
2021/05/02 12:47:37;;;;;;;;;7.00;7.00;;;;;25.71;40.91;100937.63;4913466;29;8879;-77
2021/05/02 12:50:39;;;;;;;;;7.00;7.00;;;;;25.66;41.84;100958.72;4916331;29;8906;-77
2021/05/02 12:53:40;;;;;;;;;6.40;6.40;;;;;25.70;41.30;100947.34;4898472;29;9004;-77
2021/05/02 12:56:36;;;;;;;;;12.60;12.60;;;;;25.44;43.45;100946.13;4916387;29;8886;-77
2021/05/02 12:59:28;;;;;;;;;7.80;7.80;;;;;25.34;43.01;100950.72;4917669;29;8859;-75
2021/05/02 13:02:08;;;;;;;;;8.40;8.40;;;;;25.21;43.58;100944.81;4901408;29;9606;-76
2021/05/02 13:04:43;;;;;;;;;10.60;10.60;;;;;25.07;43.63;100939.34;4903478;29;8935;-75
2021/05/02 13:07:41;;;;;;;;;16.60;16.60;;;;;25.23;44.17;100930.25;4879464;29;8870;-75
2021/05/02 13:10:36;;;;;;;;;7.20;7.20;;;;;25.36;42.49;100916.31;4883010;29;8857;-76
2021/05/02 13:13:32;;;;;;;;;10.20;10.20;;;;;25.85;42.26;100903.44;4892817;29;8843;-76